Time;durP1;ratioP1;P1;durP2;ratioP2;P2;SDS_P1;SDS_P2;PMS_P1;PMS_P2;Temp;Humidity;BMP_temperature;BMP_pressure;BME280_temperature;BME280_humidity;BME280_pressure;Samples;Min_cycle;Max_cycle;Signal;HPM_P1;HPM_P2
2021/05/20 00:01:00;;;;;;;2.13;1.88;;;;;;;;;;5065531;28;20017;-74
2021/05/20 00:03:28;;;;;;;1.65;1.55;;;;;;;;;;5063674;28;20369;-73
2021/05/20 00:05:54;;;;;;;2.00;1.60;;;;;;;;;;5054589;28;20037;-73
2021/05/20 00:08:21;;;;;;;1.88;1.77;;;;;;;;;;5054267;28;20525;-73
2021/05/20 00:10:47;;;;;;;3.15;1.70;;;;;;;;;;5054788;28;20051;-73
2021/05/20 00:13:12;;;;;;;2.10;1.85;;;;;;;;;;5062548;28;20062;-73
2021/05/20 00:15:37;;;;;;;2.92;1.73;;;;;;;;;;5074271;28;20245;-73
2021/05/20 00:18:03;;;;;;;2.90;1.83;;;;;;;;;;5073685;28;20154;-74
2021/05/20 00:20:28;;;;;;;3.13;1.55;;;;;;;;;;5074225;28;20036;-73
2021/05/20 00:22:53;;;;;;;3.70;1.80;;;;;;;;;;5072814;28;20023;-73
2021/05/20 00:25:18;;;;;;;1.58;1.48;;;;;;;;;;5074240;28;20495;-73
2021/05/20 00:27:43;;;;;;;2.92;1.42;;;;;;;;;;5073453;28;20028;-73
2021/05/20 00:30:10;;;;;;;6.25;1.63;;;;;;;;;;5074228;28;20032;-73
2021/05/20 00:32:35;;;;;;;3.35;1.52;;;;;;;;;;5074198;28;20074;-73
2021/05/20 00:35:00;;;;;;;1.80;1.70;;;;;;;;;;5066693;28;20025;-74
2021/05/20 00:37:28;;;;;;;2.92;1.70;;;;;;;;;;5053069;28;20029;-74
2021/05/20 00:39:53;;;;;;;4.78;1.77;;;;;;;;;;5058620;28;20024;-73
2021/05/20 00:42:23;;;;;;;2.80;1.75;;;;;;;;;;5073874;28;20035;-72
2021/05/20 00:45:02;;;;;;;2.95;1.88;;;;;;;;;;5069596;28;20488;-73
2021/05/20 00:47:32;;;;;;;4.32;2.20;;;;;;;;;;5053893;28;20075;-72
2021/05/20 00:50:01;;;;;;;2.85;2.35;;;;;;;;;;5057040;28;20020;-72
2021/05/20 00:52:27;;;;;;;2.13;1.92;;;;;;;;;;5073714;28;20052;-72
2021/05/20 00:54:53;;;;;;;3.65;2.15;;;;;;;;;;5073276;28;20055;-72
2021/05/20 00:57:20;;;;;;;3.33;2.60;;;;;;;;;;5073838;28;20104;-73
2021/05/20 00:59:48;;;;;;;2.60;2.40;;;;;;;;;;5073719;28;20021;-72
2021/05/20 01:02:14;;;;;;;5.65;3.15;;;;;;;;;;5072742;28;20040;-72
2021/05/20 01:04:39;;;;;;;2.78;2.58;;;;;;;;;;5059178;28;20017;-72
2021/05/20 01:07:04;;;;;;;4.55;2.85;;;;;;;;;;5065089;28;20492;-73
2021/05/20 01:09:31;;;;;;;3.97;3.08;;;;;;;;;;5073481;28;20081;-72
2021/05/20 01:11:56;;;;;;;4.80;3.78;;;;;;;;;;5073594;28;20017;-72
2021/05/20 01:14:22;;;;;;;5.55;3.50;;;;;;;;;;5073822;28;20016;-72
2021/05/20 01:16:47;;;;;;;3.30;2.80;;;;;;;;;;5054447;28;20462;-72
2021/05/20 01:19:13;;;;;;;3.42;3.00;;;;;;;;;;5052571;28;20031;-72
2021/05/20 01:21:40;;;;;;;3.70;3.33;;;;;;;;;;5069496;28;20107;-72
2021/05/20 01:24:05;;;;;;;4.22;3.42;;;;;;;;;;5073481;28;20035;-72
2021/05/20 01:26:31;;;;;;;3.67;3.28;;;;;;;;;;5056875;28;20029;-72
2021/05/20 01:28:58;;;;;;;6.20;3.47;;;;;;;;;;5053155;28;20032;-72
2021/05/20 01:31:23;;;;;;;4.00;3.40;;;;;;;;;;5052585;28;20349;-72
2021/05/20 01:33:49;;;;;;;5.22;3.10;;;;;;;;;;5062029;28;20021;-72
2021/05/20 01:36:22;;;;;;;5.43;3.55;;;;;;;;;;5054245;28;20021;-72
2021/05/20 01:38:47;;;;;;;6.65;4.25;;;;;;;;;;5052395;28;20021;-72
2021/05/20 01:41:15;;;;;;;4.38;3.85;;;;;;;;;;5052628;28;20025;-72
2021/05/20 01:43:41;;;;;;;5.32;3.90;;;;;;;;;;5051979;28;20013;-72
2021/05/20 01:46:06;;;;;;;5.53;4.25;;;;;;;;;;5062792;28;20377;-73
2021/05/20 01:48:36;;;;;;;4.75;4.30;;;;;;;;;;5072935;28;20020;-72
2021/05/20 01:51:09;;;;;;;4.47;3.72;;;;;;;;;;5071484;28;20025;-72
2021/05/20 01:53:35;;;;;;;5.07;4.13;;;;;;;;;;5071808;28;20033;-72
2021/05/20 01:56:01;;;;;;;7.38;5.10;;;;;;;;;;5072235;28;20448;-72
2021/05/20 01:58:26;;;;;;;6.03;4.65;;;;;;;;;;5073002;28;20017;-72
2021/05/20 02:00:51;;;;;;;5.18;4.60;;;;;;;;;;5071982;28;20135;-72
2021/05/20 02:03:19;;;;;;;5.00;4.50;;;;;;;;;;5077002;28;20035;-71
2021/05/20 02:05:47;;;;;;;5.38;4.30;;;;;;;;;;5074198;28;20021;-72
2021/05/20 02:08:14;;;;;;;6.35;4.70;;;;;;;;;;5076029;28;20024;-72
2021/05/20 02:10:40;;;;;;;9.10;5.00;;;;;;;;;;5076767;28;20031;-72
2021/05/20 02:13:05;;;;;;;5.47;4.97;;;;;;;;;;5069916;28;20349;-72
2021/05/20 02:15:30;;;;;;;5.45;4.88;;;;;;;;;;5076601;28;20029;-73
2021/05/20 02:17:55;;;;;;;5.63;5.05;;;;;;;;;;5076287;28;20016;-72
2021/05/20 02:20:23;;;;;;;6.30;5.70;;;;;;;;;;5075346;28;20045;-72
2021/05/20 02:22:49;;;;;;;6.47;5.80;;;;;;;;;;5059733;28;20441;-72
2021/05/20 02:25:14;;;;;;;6.32;5.00;;;;;;;;;;5056076;28;20098;-72
2021/05/20 02:27:39;;;;;;;7.63;5.72;;;;;;;;;;5060723;28;20025;-72
2021/05/20 02:30:05;;;;;;;5.80;5.15;;;;;;;;;;5056306;28;20090;-72
2021/05/20 02:32:33;;;;;;;6.72;4.70;;;;;;;;;;5056498;28;20020;-72
2021/05/20 02:34:58;;;;;;;5.57;4.90;;;;;;;;;;5056526;28;20028;-72
2021/05/20 02:37:26;;;;;;;5.65;5.05;;;;;;;;;;5071743;28;20012;-73
2021/05/20 02:39:51;;;;;;;5.82;5.28;;;;;;;;;;5076308;28;20095;-72
2021/05/20 02:42:16;;;;;;;5.65;5.10;;;;;;;;;;5073422;28;20609;-73
2021/05/20 02:44:44;;;;;;;8.75;5.20;;;;;;;;;;5055715;28;20052;-72
2021/05/20 02:47:09;;;;;;;5.65;5.10;;;;;;;;;;5056166;28;20108;-73
2021/05/20 02:49:34;;;;;;;5.57;4.60;;;;;;;;;;5074478;28;20056;-73
2021/05/20 02:52:02;;;;;;;5.90;5.25;;;;;;;;;;5076091;28;20572;-72
2021/05/20 02:54:27;;;;;;;5.38;4.78;;;;;;;;;;5075447;28;20047;-73
2021/05/20 02:56:52;;;;;;;6.00;4.65;;;;;;;;;;5075966;28;20024;-72
2021/05/20 02:59:17;;;;;;;5.70;5.03;;;;;;;;;;5075516;28;20028;-72
2021/05/20 03:01:44;;;;;;;7.18;5.55;;;;;;;;;;5075862;28;20348;-73
2021/05/20 03:04:12;;;;;;;6.43;5.78;;;;;;;;;;5062275;28;20025;-72
2021/05/20 03:06:41;;;;;;;7.20;5.53;;;;;;;;;;5055771;28;20126;-72
2021/05/20 03:09:07;;;;;;;7.00;6.30;;;;;;;;;;5067233;28;20024;-72
2021/05/20 03:11:33;;;;;;;6.72;6.03;;;;;;;;;;5075386;28;20024;-72
2021/05/20 03:13:58;;;;;;;7.50;6.72;;;;;;;;;;5068031;28;20028;-72
2021/05/20 03:16:23;;;;;;;6.63;6.03;;;;;;;;;;5058469;28;20021;-72
2021/05/20 03:18:51;;;;;;;7.07;6.18;;;;;;;;;;5055131;28;20519;-72
2021/05/20 03:21:16;;;;;;;7.80;6.68;;;;;;;;;;5055270;28;20044;-72
2021/05/20 03:23:42;;;;;;;7.90;7.10;;;;;;;;;;5055543;28;20051;-72
2021/05/20 03:26:07;;;;;;;7.38;6.50;;;;;;;;;;5055785;28;20079;-72
2021/05/20 03:28:32;;;;;;;8.55;7.55;;;;;;;;;;5074855;28;20016;-72
2021/05/20 03:30:58;;;;;;;7.50;6.82;;;;;;;;;;5075595;28;20020;-72
2021/05/20 03:33:25;;;;;;;8.05;7.25;;;;;;;;;;5074436;28;20039;-72
2021/05/20 03:35:56;;;;;;;9.48;8.55;;;;;;;;;;5064022;28;20025;-72
2021/05/20 03:38:21;;;;;;;9.80;8.95;;;;;;;;;;5064496;28;20468;-74
2021/05/20 03:40:46;;;;;;;9.57;8.60;;;;;;;;;;5065659;28;20021;-73
2021/05/20 03:43:11;;;;;;;10.32;9.00;;;;;;;;;;5054344;28;20322;-73
2021/05/20 03:45:36;;;;;;;11.48;10.38;;;;;;;;;;5065542;28;20052;-73
2021/05/20 03:48:02;;;;;;;16.27;12.52;;;;;;;;;;5053707;28;20029;-73
2021/05/20 03:50:27;;;;;;;14.82;13.40;;;;;;;;;;5054600;28;20142;-73
2021/05/20 03:52:52;;;;;;;14.15;12.65;;;;;;;;;;5068343;28;20028;-73
2021/05/20 03:55:17;;;;;;;14.77;12.98;;;;;;;;;;5073690;28;20016;-73
2021/05/20 03:57:45;;;;;;;15.35;12.77;;;;;;;;;;5061151;28;20331;-72
2021/05/20 04:00:13;;;;;;;12.93;11.60;;;;;;;;;;5055053;28;20017;-72
2021/05/20 04:02:40;;;;;;;14.25;12.88;;;;;;;;;;5057968;28;20033;-72
2021/05/20 04:05:06;;;;;;;14.55;13.10;;;;;;;;;;5053377;28;20025;-72
2021/05/20 04:07:31;;;;;;;14.40;12.93;;;;;;;;;;5054082;28;20024;-72
2021/05/20 04:09:56;;;;;;;16.48;14.88;;;;;;;;;;5054059;28;20037;-73
2021/05/20 04:12:21;;;;;;;17.00;15.20;;;;;;;;;;5054965;28;20105;-72
2021/05/20 04:14:46;;;;;;;17.60;15.95;;;;;;;;;;5071681;28;20025;-72
2021/05/20 04:17:14;;;;;;;17.07;15.37;;;;;;;;;;5074348;28;20027;-72
2021/05/20 04:19:39;;;;;;;17.10;15.50;;;;;;;;;;5073796;28;20378;-72
2021/05/20 04:22:07;;;;;;;19.15;17.15;;;;;;;;;;5072826;28;20020;-72
2021/05/20 04:24:32;;;;;;;19.83;17.77;;;;;;;;;;5073560;28;20016;-73
2021/05/20 04:26:57;;;;;;;19.25;17.25;;;;;;;;;;5058148;28;20017;-73
2021/05/20 04:29:22;;;;;;;21.90;19.65;;;;;;;;;;5054133;28;20498;-72
2021/05/20 04:31:48;;;;;;;19.92;17.52;;;;;;;;;;5061519;28;20028;-73
2021/05/20 04:34:13;;;;;;;21.80;19.58;;;;;;;;;;5072895;28;20031;-73
2021/05/20 04:36:38;;;;;;;23.38;21.05;;;;;;;;;;5072656;28;20016;-73
2021/05/20 04:39:04;;;;;;;25.75;23.20;;;;;;;;;;5074250;28;20038;-73
2021/05/20 04:41:31;;;;;;;25.98;23.23;;;;;;;;;;5073576;28;20075;-73
2021/05/20 04:43:58;;;;;;;26.48;23.70;;;;;;;;;;5073901;28;20385;-73
2021/05/20 04:46:29;;;;;;;25.05;22.48;;;;;;;;;;5072357;28;20462;-73
2021/05/20 04:48:56;;;;;;;29.25;26.20;;;;;;;;;;5073959;28;20089;-73
2021/05/20 04:51:22;;;;;;;29.88;26.75;;;;;;;;;;5065608;28;20013;-75
2021/05/20 04:53:47;;;;;;;30.83;27.50;;;;;;;;;;5073787;28;20020;-75
2021/05/20 04:56:12;;;;;;;28.88;25.85;;;;;;;;;;5062870;28;20472;-75
2021/05/20 04:58:38;;;;;;;25.92;23.17;;;;;;;;;;5054004;28;20017;-75
2021/05/20 05:01:03;;;;;;;29.65;26.00;;;;;;;;;;5060335;28;20418;-75
2021/05/20 05:03:28;;;;;;;33.08;29.35;;;;;;;;;;5073909;28;20479;-76
2021/05/20 05:05:53;;;;;;;31.45;28.15;;;;;;;;;;5073012;28;20513;-75
2021/05/20 05:08:19;;;;;;;32.35;28.88;;;;;;;;;;5073729;28;20024;-75
2021/05/20 05:10:44;;;;;;;34.40;30.75;;;;;;;;;;5073147;28;20043;-75
2021/05/20 05:13:12;;;;;;;39.50;31.23;;;;;;;;;;5067417;28;20036;-75
2021/05/20 05:15:40;;;;;;;34.70;30.85;;;;;;;;;;5073149;28;20031;-76
2021/05/20 05:18:07;;;;;;;36.20;32.42;;;;;;;;;;5072771;28;20449;-75
2021/05/20 05:20:32;;;;;;;39.88;34.67;;;;;;;;;;5073188;28;20021;-75
2021/05/20 05:22:57;;;;;;;38.10;33.40;;;;;;;;;;5072326;28;20024;-75
2021/05/20 05:25:23;;;;;;;38.35;34.30;;;;;;;;;;5073347;28;20553;-76
2021/05/20 05:27:50;;;;;;;39.78;35.10;;;;;;;;;;5072000;28;20016;-75
2021/05/20 05:30:18;;;;;;;37.67;32.92;;;;;;;;;;5070240;28;20028;-75
2021/05/20 05:32:45;;;;;;;38.85;34.95;;;;;;;;;;5073468;28;20024;-74
2021/05/20 05:35:13;;;;;;;39.80;35.58;;;;;;;;;;5072631;28;20025;-75
2021/05/20 05:37:38;;;;;;;45.35;37.13;;;;;;;;;;5072621;28;20021;-75
2021/05/20 05:40:04;;;;;;;42.90;38.20;;;;;;;;;;5072547;28;20035;-74
2021/05/20 05:42:29;;;;;;;40.72;36.30;;;;;;;;;;5073149;28;20017;-74
2021/05/20 05:44:55;;;;;;;42.38;37.50;;;;;;;;;;5073104;28;20048;-74
2021/05/20 05:47:21;;;;;;;45.90;36.72;;;;;;;;;;5073462;28;20059;-74
2021/05/20 05:49:50;;;;;;;43.83;38.03;;;;;;;;;;5057696;28;20025;-74
2021/05/20 05:52:26;;;;;;;42.58;37.97;;;;;;;;;;5069952;28;20103;-74
2021/05/20 05:54:54;;;;;;;41.67;35.75;;;;;;;;;;5061283;28;20365;-75
2021/05/20 05:57:19;;;;;;;40.42;36.00;;;;;;;;;;5071578;28;20021;-74
2021/05/20 05:59:44;;;;;;;45.35;38.55;;;;;;;;;;5072013;28;20017;-74
2021/05/20 06:02:11;;;;;;;43.83;38.83;;;;;;;;;;5072801;28;20452;-74
2021/05/20 06:04:36;;;;;;;43.72;37.15;;;;;;;;;;5063027;28;20020;-76
2021/05/20 06:07:02;;;;;;;43.38;38.78;;;;;;;;;;5055861;28;20460;-76
2021/05/20 06:09:29;;;;;;;44.28;38.42;;;;;;;;;;5052965;28;20033;-78
2021/05/20 06:11:54;;;;;;;44.78;39.92;;;;;;;;;;5053346;28;20338;-74
2021/05/20 06:14:19;;;;;;;44.00;39.22;;;;;;;;;;5070712;28;20039;-75
2021/05/20 06:16:44;;;;;;;45.58;39.22;;;;;;;;;;5073012;28;20028;-75
2021/05/20 06:19:12;;;;;;;50.65;41.15;;;;;;;;;;5065811;28;20025;-75
2021/05/20 06:21:38;;;;;;;45.20;39.75;;;;;;;;;;5068734;28;20400;-72
2021/05/20 06:24:03;;;;;;;45.50;37.42;;;;;;;;;;5072567;28;20078;-73
2021/05/20 06:26:29;;;;;;;42.08;37.53;;;;;;;;;;5052859;28;20065;-73
2021/05/20 06:28:54;;;;;;;42.00;36.63;;;;;;;;;;5058305;28;20058;-73
2021/05/20 06:31:19;;;;;;;44.22;37.88;;;;;;;;;;5070364;28;20020;-73
2021/05/20 06:33:45;;;;;;;43.17;38.35;;;;;;;;;;5063023;28;20025;-73
2021/05/20 06:36:11;;;;;;;41.17;36.72;;;;;;;;;;5066544;28;20036;-74
2021/05/20 06:38:37;;;;;;;41.03;35.83;;;;;;;;;;5074226;28;20020;-73
2021/05/20 06:41:06;;;;;;;41.05;36.75;;;;;;;;;;5075290;28;20564;-73
2021/05/20 06:43:32;;;;;;;39.95;35.75;;;;;;;;;;5073429;28;20119;-73
2021/05/20 06:45:57;;;;;;;38.63;34.47;;;;;;;;;;5069189;28;20484;-74
2021/05/20 06:48:22;;;;;;;36.97;32.97;;;;;;;;;;5076342;28;20129;-70
2021/05/20 06:50:50;;;;;;;41.80;37.67;;;;;;;;;;5074948;28;20761;-69
2021/05/20 06:53:19;;;;;;;41.70;36.35;;;;;;;;;;5085109;28;20055;-81
2021/05/20 06:55:45;;;;;;;37.15;32.90;;;;;;;;;;5082495;28;20056;-72
2021/05/20 07:00:36;;;;;;;35.45;31.75;;;;;;;;;;5075960;28;20052;-72
2021/05/20 07:03:04;;;;;;;36.30;32.40;;;;;;;;;;5074009;28;20027;-73
2021/05/20 07:05:29;;;;;;;40.40;29.73;;;;;;;;;;5080457;28;20021;-73
2021/05/20 07:07:54;;;;;;;32.20;28.77;;;;;;;;;;5075213;28;20032;-74
2021/05/20 07:10:19;;;;;;;33.33;28.98;;;;;;;;;;5078084;28;20020;-72
2021/05/20 07:12:45;;;;;;;32.33;28.85;;;;;;;;;;5075588;28;20032;-73
2021/05/20 07:15:11;;;;;;;34.40;29.75;;;;;;;;;;5072915;28;20020;-75
2021/05/20 07:17:36;;;;;;;32.70;28.00;;;;;;;;;;5072935;28;20461;-78
2021/05/20 07:20:02;;;;;;;29.65;26.55;;;;;;;;;;5074922;28;20344;-76
2021/05/20 07:22:28;;;;;;;27.60;24.85;;;;;;;;;;5072004;28;20404;-75
2021/05/20 07:25:01;;;;;;;26.42;23.50;;;;;;;;;;5075992;28;20357;-75
2021/05/20 07:27:27;;;;;;;22.55;20.30;;;;;;;;;;5070950;28;20012;-76
2021/05/20 07:29:52;;;;;;;21.02;18.90;;;;;;;;;;5073477;28;20349;-77
2021/05/20 07:32:19;;;;;;;21.23;19.08;;;;;;;;;;5087773;28;20067;-75
2021/05/20 07:34:44;;;;;;;23.42;20.38;;;;;;;;;;5076681;28;20453;-75
2021/05/20 07:37:10;;;;;;;21.25;19.05;;;;;;;;;;5068918;28;20107;-74
2021/05/20 07:39:35;;;;;;;23.83;20.90;;;;;;;;;;5071638;28;20551;-74
2021/05/20 07:42:00;;;;;;;26.40;23.65;;;;;;;;;;5076230;28;20020;-75
2021/05/20 07:44:25;;;;;;;27.45;24.67;;;;;;;;;;5070718;28;20130;-75
2021/05/20 07:46:53;;;;;;;26.07;23.33;;;;;;;;;;5072613;28;20040;-75
2021/05/20 07:49:19;;;;;;;25.48;22.90;;;;;;;;;;5067461;28;20332;-74
2021/05/20 07:51:44;;;;;;;23.33;20.92;;;;;;;;;;5064350;28;20047;-74
2021/05/20 07:54:12;;;;;;;27.23;23.90;;;;;;;;;;5069255;28;20472;-74
2021/05/20 07:56:37;;;;;;;25.15;22.63;;;;;;;;;;5066878;28;20052;-74
2021/05/20 07:59:02;;;;;;;25.25;22.60;;;;;;;;;;5066540;28;20091;-74
2021/05/20 08:01:29;;;;;;;23.58;21.08;;;;;;;;;;5069430;28;20025;-74
2021/05/20 08:04:07;;;;;;;23.08;19.70;;;;;;;;;;5074189;28;20392;-74
2021/05/20 08:06:40;;;;;;;20.75;18.65;;;;;;;;;;5077268;28;20085;-73
2021/05/20 08:11:50;;;;;;;20.90;18.48;;;;;;;;;;5082458;28;20020;-73
2021/05/20 08:14:16;;;;;;;20.80;18.35;;;;;;;;;;5068316;28;20028;-73
2021/05/20 08:16:41;;;;;;;22.98;20.58;;;;;;;;;;5067745;28;20027;-73
2021/05/20 08:19:07;;;;;;;23.65;21.15;;;;;;;;;;5072269;28;20012;-77
2021/05/20 08:21:32;;;;;;;22.52;20.05;;;;;;;;;;5081792;28;20494;-73
2021/05/20 08:23:57;;;;;;;21.80;19.52;;;;;;;;;;5073621;28;20082;-74
2021/05/20 08:26:25;;;;;;;22.13;19.75;;;;;;;;;;5074313;28;20024;-74
2021/05/20 08:28:54;;;;;;;20.65;18.30;;;;;;;;;;5074638;28;20017;-74
2021/05/20 08:31:19;;;;;;;19.70;17.70;;;;;;;;;;5073904;28;20119;-74
2021/05/20 08:33:44;;;;;;;19.90;17.88;;;;;;;;;;5072716;28;20103;-74
2021/05/20 08:36:10;;;;;;;20.52;18.30;;;;;;;;;;5073671;28;20116;-74
2021/05/20 08:38:38;;;;;;;20.88;18.05;;;;;;;;;;5073276;28;20048;-74
2021/05/20 08:41:03;;;;;;;20.17;17.75;;;;;;;;;;5074301;28;20031;-74
2021/05/20 08:43:29;;;;;;;18.42;15.52;;;;;;;;;;5074204;28;20016;-73
2021/05/20 08:45:54;;;;;;;19.08;16.98;;;;;;;;;;5062318;28;21735;-73
2021/05/20 08:48:22;;;;;;;16.88;15.07;;;;;;;;;;5060001;28;20056;-74
2021/05/20 08:50:49;;;;;;;17.83;15.75;;;;;;;;;;5068665;28;20037;-74
2021/05/20 08:53:15;;;;;;;17.38;15.77;;;;;;;;;;5056714;28;20099;-72
2021/05/20 08:55:42;;;;;;;17.70;14.75;;;;;;;;;;5066403;28;20104;-73
2021/05/20 08:58:10;;;;;;;18.75;15.35;;;;;;;;;;5076509;28;20071;-73
2021/05/20 09:00:38;;;;;;;16.90;15.15;;;;;;;;;;5066405;28;20005;-73
2021/05/20 09:03:04;;;;;;;16.23;14.50;;;;;;;;;;5066273;28;20048;-72
2021/05/20 09:05:29;;;;;;;16.52;14.57;;;;;;;;;;5069945;28;20449;-73
2021/05/20 09:07:57;;;;;;;18.05;14.02;;;;;;;;;;5072387;28;20020;-74
2021/05/20 09:10:32;;;;;;;14.93;13.50;;;;;;;;;;5069029;28;20051;-73
2021/05/20 09:13:04;;;;;;;15.63;14.00;;;;;;;;;;5061659;28;20017;-73
2021/05/20 09:15:31;;;;;;;18.88;15.73;;;;;;;;;;5061631;28;20505;-73
2021/05/20 09:18:03;;;;;;;16.45;14.35;;;;;;;;;;5066214;28;20029;-73
2021/05/20 09:20:30;;;;;;;16.00;14.40;;;;;;;;;;5063896;28;20027;-73
2021/05/20 09:23:11;;;;;;;15.82;14.32;;;;;;;;;;5057286;28;20017;-72
2021/05/20 09:25:37;;;;;;;15.70;13.20;;;;;;;;;;5060140;28;20021;-73
2021/05/20 09:28:03;;;;;;;14.93;13.60;;;;;;;;;;5078238;28;20012;-73
2021/05/20 09:30:31;;;;;;;15.07;12.52;;;;;;;;;;5072328;28;20043;-73
2021/05/20 09:32:58;;;;;;;13.30;11.98;;;;;;;;;;5074741;28;20100;-70
2021/05/20 09:35:25;;;;;;;11.98;10.77;;;;;;;;;;5063713;28;20056;-71
2021/05/20 09:37:59;;;;;;;13.27;11.85;;;;;;;;;;5073186;28;20021;-71
2021/05/20 09:40:27;;;;;;;12.32;11.07;;;;;;;;;;5071441;28;20016;-71
2021/05/20 09:42:55;;;;;;;10.68;9.35;;;;;;;;;;5063949;28;20032;-71
2021/05/20 09:45:24;;;;;;;8.32;7.53;;;;;;;;;;5068760;28;20110;-71
2021/05/20 09:48:01;;;;;;;11.00;8.18;;;;;;;;;;5071461;28;20055;-70
2021/05/20 09:50:26;;;;;;;8.52;7.63;;;;;;;;;;5068704;28;20040;-70
2021/05/20 09:52:59;;;;;;;9.25;7.82;;;;;;;;;;5072200;28;20056;-71
2021/05/20 09:55:25;;;;;;;9.82;8.57;;;;;;;;;;5072609;28;20327;-71
2021/05/20 09:57:53;;;;;;;9.80;7.82;;;;;;;;;;5066159;28;20016;-70
2021/05/20 10:00:22;;;;;;;10.35;8.27;;;;;;;;;;5062265;28;20090;-71
2021/05/20 10:02:57;;;;;;;10.60;8.13;;;;;;;;;;5065316;28;20024;-70
2021/05/20 10:05:33;;;;;;;11.27;9.27;;;;;;;;;;5066012;28;20041;-70
2021/05/20 10:08:00;;;;;;;9.95;8.32;;;;;;;;;;5073880;28;20115;-71
2021/05/20 10:10:25;;;;;;;9.35;8.32;;;;;;;;;;5072360;28;20024;-70
2021/05/20 10:12:51;;;;;;;11.00;8.77;;;;;;;;;;5091333;28;20020;-70
2021/05/20 10:15:19;;;;;;;10.07;7.65;;;;;;;;;;5075273;28;20016;-70
2021/05/20 10:17:44;;;;;;;8.82;7.25;;;;;;;;;;5086494;28;20020;-70
2021/05/20 10:20:13;;;;;;;9.88;8.60;;;;;;;;;;5072903;28;20023;-69
2021/05/20 10:22:40;;;;;;;8.57;7.55;;;;;;;;;;5058788;28;20461;-70
2021/05/20 10:25:06;;;;;;;7.80;7.05;;;;;;;;;;5056743;28;20128;-70
2021/05/20 10:27:32;;;;;;;10.55;9.50;;;;;;;;;;5056815;28;20363;-69
2021/05/20 10:30:00;;;;;;;13.20;9.57;;;;;;;;;;5096025;28;20456;-70
2021/05/20 10:32:27;;;;;;;6.78;5.75;;;;;;;;;;5083506;28;20028;-71
2021/05/20 10:35:06;;;;;;;7.28;6.43;;;;;;;;;;5079466;28;20043;-72
2021/05/20 10:37:38;;;;;;;8.43;6.70;;;;;;;;;;5082535;28;20115;-71
2021/05/20 10:40:06;;;;;;;8.75;6.38;;;;;;;;;;5091045;28;20016;-71
2021/05/20 10:42:32;;;;;;;7.78;5.45;;;;;;;;;;5074991;28;20380;-71
2021/05/20 10:45:35;;;;;;;6.95;6.03;;;;;;;;;;5080543;28;20052;-71
2021/05/20 10:48:04;;;;;;;8.00;5.03;;;;;;;;;;5021720;28;20021;-70
2021/05/20 10:50:50;;;;;;;6.30;5.70;;;;;;;;;;4993812;28;20091;-71
2021/05/20 10:53:34;;;;;;;6.70;5.22;;;;;;;;;;5051417;28;20037;-70
2021/05/20 10:55:59;;;;;;;8.35;5.22;;;;;;;;;;5078494;28;20035;-70
2021/05/20 10:58:32;;;;;;;5.32;4.25;;;;;;;;;;5075973;28;20024;-70
2021/05/20 11:00:57;;;;;;;5.55;3.80;;;;;;;;;;5081441;28;20020;-70
2021/05/20 11:03:44;;;;;;;4.28;3.80;;;;;;;;;;5072195;28;20035;-70
2021/05/20 11:06:12;;;;;;;5.00;3.67;;;;;;;;;;5078062;28;20051;-70
2021/05/20 11:08:37;;;;;;;3.50;3.20;;;;;;;;;;5093849;28;20019;-70
2021/05/20 11:11:07;;;;;;;3.20;2.92;;;;;;;;;;5090449;28;20029;-71
2021/05/20 11:13:38;;;;;;;2.90;2.58;;;;;;;;;;5091595;28;20020;-71
2021/05/20 11:16:27;;;;;;;2.92;2.50;;;;;;;;;;5092855;28;20103;-71
2021/05/20 11:19:15;;;;;;;3.17;1.80;;;;;;;;;;5075791;28;20031;-71
2021/05/20 11:22:02;;;;;;;2.78;1.77;;;;;;;;;;5068263;28;20012;-71
2021/05/20 11:24:28;;;;;;;2.90;1.90;;;;;;;;;;5065190;28;20016;-71
2021/05/20 11:26:55;;;;;;;4.22;2.00;;;;;;;;;;5086572;28;20074;-71
2021/05/20 11:29:26;;;;;;;3.22;2.10;;;;;;;;;;5074651;28;20467;-71
2021/05/20 11:31:57;;;;;;;7.75;2.25;;;;;;;;;;5067317;28;20408;-71
2021/05/20 11:37:06;;;;;;;2.88;1.90;;;;;;;;;;5075475;28;20043;-71
2021/05/20 11:39:32;;;;;;;3.47;1.77;;;;;;;;;;5075883;28;20024;-71
2021/05/20 11:41:58;;;;;;;3.78;1.60;;;;;;;;;;5074341;28;20028;-71
2021/05/20 11:44:25;;;;;;;3.67;1.63;;;;;;;;;;5073915;28;20044;-70
2021/05/20 11:47:11;;;;;;;2.25;1.70;;;;;;;;;;5068538;28;20040;-71
2021/05/20 11:49:37;;;;;;;4.15;1.95;;;;;;;;;;5072498;28;20066;-72
2021/05/20 11:52:08;;;;;;;2.40;1.33;;;;;;;;;;5078333;28;20031;-72
2021/05/20 11:54:34;;;;;;;2.88;1.30;;;;;;;;;;5094643;28;20040;-69
2021/05/20 11:57:03;;;;;;;5.88;1.40;;;;;;;;;;5079932;28;20025;-71
2021/05/20 11:59:31;;;;;;;5.38;1.10;;;;;;;;;;5054934;28;20017;-71
2021/05/20 12:01:57;;;;;;;2.20;1.00;;;;;;;;;;5076740;28;20020;-71
2021/05/20 12:04:25;;;;;;;9.20;1.40;;;;;;;;;;5074077;28;20476;-71
2021/05/20 12:06:50;;;;;;;1.17;1.08;;;;;;;;;;5072022;28;20056;-72
2021/05/20 12:09:15;;;;;;;4.95;1.45;;;;;;;;;;5078430;28;20481;-71
2021/05/20 12:11:41;;;;;;;2.25;1.50;;;;;;;;;;5073493;28;20023;-71
2021/05/20 12:14:25;;;;;;;3.38;1.40;;;;;;;;;;5082196;28;20019;-72
2021/05/20 12:17:02;;;;;;;3.42;1.20;;;;;;;;;;5080657;28;20023;-71
2021/05/20 12:19:32;;;;;;;2.42;1.35;;;;;;;;;;5073898;28;20334;-71
2021/05/20 12:22:13;;;;;;;4.88;1.42;;;;;;;;;;5077734;28;20023;-73
2021/05/20 12:24:48;;;;;;;3.05;1.30;;;;;;;;;;5077193;28;20155;-72
2021/05/20 12:27:18;;;;;;;1.38;0.93;;;;;;;;;;5069528;28;20048;-72
2021/05/20 12:29:44;;;;;;;2.15;1.10;;;;;;;;;;5054654;28;20335;-72
2021/05/20 12:32:23;;;;;;;2.95;0.93;;;;;;;;;;5054652;28;20473;-69
2021/05/20 12:34:48;;;;;;;2.28;0.80;;;;;;;;;;5054819;28;20025;-69
2021/05/20 12:37:13;;;;;;;1.63;0.80;;;;;;;;;;5072460;28;20445;-69
2021/05/20 12:39:45;;;;;;;2.45;0.80;;;;;;;;;;5073615;28;20031;-69
2021/05/20 12:42:14;;;;;;;4.88;0.90;;;;;;;;;;5074629;28;20437;-69
2021/05/20 12:44:39;;;;;;;2.40;1.00;;;;;;;;;;5073452;28;20052;-70
2021/05/20 12:47:16;;;;;;;2.60;0.97;;;;;;;;;;5073644;28;20436;-71
2021/05/20 12:49:54;;;;;;;1.10;1.00;;;;;;;;;;5060460;28;20270;-70
2021/05/20 12:52:20;;;;;;;2.05;1.10;;;;;;;;;;5072800;28;20012;-71
2021/05/20 12:54:45;;;;;;;3.47;1.30;;;;;;;;;;5064750;28;20358;-71
2021/05/20 12:57:10;;;;;;;3.90;1.07;;;;;;;;;;5056499;28;20279;-71
2021/05/20 12:59:39;;;;;;;2.00;1.20;;;;;;;;;;5056793;28;20338;-70
2021/05/20 13:02:14;;;;;;;2.80;1.20;;;;;;;;;;5072977;28;20388;-71
2021/05/20 13:04:43;;;;;;;1.38;1.00;;;;;;;;;;5074220;28;20063;-71
2021/05/20 13:07:10;;;;;;;2.55;1.00;;;;;;;;;;5074018;28;20043;-72
2021/05/20 13:09:36;;;;;;;1.30;0.93;;;;;;;;;;5073330;28;20017;-71
2021/05/20 13:12:02;;;;;;;1.02;0.80;;;;;;;;;;5074049;28;20334;-71
2021/05/20 13:14:35;;;;;;;2.08;1.15;;;;;;;;;;5067953;28;20031;-72
2021/05/20 13:22:35;;;;;;;8.00;6.15;;;;;;;;;;5073840;28;20059;-72
2021/05/20 13:25:26;;;;;;;1.80;1.00;;;;;;;;;;5066842;28;20005;-73
2021/05/20 13:27:52;;;;;;;2.17;1.38;;;;;;;;;;5051378;28;20454;-73
2021/05/20 13:32:59;;;;;;;1.35;1.10;;;;;;;;;;5053906;28;20029;-71
2021/05/20 13:35:24;;;;;;;2.05;1.00;;;;;;;;;;5053438;28;20020;-71
2021/05/20 13:37:50;;;;;;;3.13;1.00;;;;;;;;;;5073242;28;20025;-71
2021/05/20 13:40:19;;;;;;;1.00;0.80;;;;;;;;;;5073042;28;20063;-72
2021/05/20 13:42:48;;;;;;;1.20;0.80;;;;;;;;;;5072833;28;20376;-71
2021/05/20 13:45:13;;;;;;;1.83;1.27;;;;;;;;;;5073388;28;20044;-70
2021/05/20 13:47:39;;;;;;;1.58;1.05;;;;;;;;;;5073657;28;20039;-71
2021/05/20 13:50:05;;;;;;;1.60;0.77;;;;;;;;;;5072127;28;20070;-70
2021/05/20 13:52:33;;;;;;;0.82;0.80;;;;;;;;;;5072941;28;20065;-70
2021/05/20 13:54:59;;;;;;;1.88;0.90;;;;;;;;;;5068398;28;20122;-71
2021/05/20 13:57:24;;;;;;;1.33;0.80;;;;;;;;;;5061968;28;20460;-71
2021/05/20 13:59:49;;;;;;;1.13;0.90;;;;;;;;;;5072984;28;20333;-71
2021/05/20 14:02:17;;;;;;;1.50;0.97;;;;;;;;;;5071856;28;20031;-71
2021/05/20 14:04:42;;;;;;;1.73;1.00;;;;;;;;;;5073479;28;20255;-71
2021/05/20 14:07:08;;;;;;;1.88;0.90;;;;;;;;;;5064293;28;20031;-70
2021/05/20 14:09:36;;;;;;;0.80;0.70;;;;;;;;;;5070665;28;20056;-70
2021/05/20 14:12:02;;;;;;;1.42;0.85;;;;;;;;;;5066701;28;20028;-71
2021/05/20 14:14:31;;;;;;;1.15;0.90;;;;;;;;;;5078924;28;20149;-71
2021/05/20 14:16:57;;;;;;;2.08;0.90;;;;;;;;;;5072459;28;20406;-72
2021/05/20 14:19:23;;;;;;;2.53;0.80;;;;;;;;;;5072572;28;20025;-72
2021/05/20 14:21:48;;;;;;;1.38;0.80;;;;;;;;;;5071908;28;20112;-72
2021/05/20 14:24:15;;;;;;;2.03;1.00;;;;;;;;;;5066049;28;20112;-71
2021/05/20 14:26:43;;;;;;;2.20;0.95;;;;;;;;;;5068309;28;20360;-71
2021/05/20 14:29:08;;;;;;;1.45;1.00;;;;;;;;;;5064302;28;20040;-72
2021/05/20 14:31:33;;;;;;;1.42;1.05;;;;;;;;;;5070971;28;20016;-72
2021/05/20 14:33:58;;;;;;;1.15;0.95;;;;;;;;;;5063483;28;20431;-71
2021/05/20 14:36:24;;;;;;;1.13;0.82;;;;;;;;;;5075169;28;20100;-72
2021/05/20 14:38:50;;;;;;;2.28;1.00;;;;;;;;;;5072905;28;20032;-73
2021/05/20 14:41:15;;;;;;;2.22;0.90;;;;;;;;;;5071678;28;20040;-74
2021/05/20 14:43:41;;;;;;;0.77;0.77;;;;;;;;;;5071769;28;20016;-73
2021/05/20 14:46:06;;;;;;;2.13;0.80;;;;;;;;;;5070933;28;20060;-73
2021/05/20 14:48:37;;;;;;;2.70;1.03;;;;;;;;;;5068499;28;20028;-74